createdAt,value
2023-04-19T00:04:10.115Z,11.02
2023-04-19T00:09:12.114Z,11.25
2023-04-19T00:14:14.116Z,9.95
2023-04-19T00:19:16.320Z,11.23
2023-04-19T00:24:18.451Z,9.88
2023-04-19T00:29:20.199Z,8.95
2023-04-19T00:34:22.037Z,7.95
2023-04-19T00:39:24.149Z,8.25
2023-04-19T00:44:25.926Z,8.30
2023-04-19T00:49:30.024Z,7.90
2023-04-19T00:54:33.527Z,7.90
2023-04-19T00:59:35.416Z,7.55
2023-04-19T01:04:39.028Z,7.40
2023-04-19T01:09:43.395Z,7.65
2023-04-19T01:14:45.231Z,8.68
2023-04-19T01:19:47.387Z,8.30
2023-04-19T01:24:49.173Z,7.50
2023-04-19T01:29:51.048Z,8.02
2023-04-19T01:34:53.219Z,7.47
2023-04-19T01:39:55.024Z,8.02
2023-04-19T01:44:56.817Z,7.53
2023-04-19T01:49:58.591Z,7.50
2023-04-19T01:55:00.437Z,7.80
2023-04-19T02:00:02.596Z,8.98
2023-04-19T02:05:08.519Z,8.18
2023-04-19T02:10:14.352Z,7.72
2023-04-19T02:15:16.144Z,7.72
2023-04-19T02:20:17.987Z,8.55
2023-04-19T02:25:20.091Z,9.00
2023-04-19T02:30:21.952Z,9.95
2023-04-19T02:35:25.465Z,8.52
2023-04-19T02:40:27.292Z,7.85
2023-04-19T02:45:29.119Z,8.18
2023-04-19T02:50:31.154Z,8.52
2023-04-19T02:55:33.417Z,9.05
2023-04-19T03:00:50.138Z,8.88
2023-04-19T03:05:55.687Z,8.82
2023-04-19T03:10:58.496Z,9.98
2023-04-19T03:16:00.698Z,9.93
2023-04-19T03:21:05.532Z,8.55
2023-04-19T03:26:16.132Z,8.23
2023-04-19T03:31:21.849Z,8.65
2023-04-19T03:36:27.018Z,9.07
2023-04-19T03:41:29.058Z,10.30
2023-04-19T03:46:51.266Z,10.55
2023-04-19T03:51:57.855Z,9.98
2023-04-19T03:57:01.194Z,9.70
2023-04-19T04:02:04.220Z,10.32
2023-04-19T04:07:06.140Z,11.15
2023-04-19T04:12:08.597Z,10.77
2023-04-19T04:17:11.310Z,12.88
2023-04-19T04:22:13.243Z,12.20
2023-04-19T04:27:21.347Z,12.20
2023-04-19T04:32:24.992Z,11.95
2023-04-19T04:37:36.279Z,12.32
2023-04-19T04:42:39.178Z,11.13
2023-04-19T04:47:41.765Z,10.07
2023-04-19T04:52:45.797Z,9.73
2023-04-19T04:57:54.468Z,7.50
2023-04-19T05:03:04.201Z,7.60
2023-04-19T05:08:10.717Z,7.22
2023-04-19T05:13:13.904Z,6.35
2023-04-19T05:18:16.085Z,7.15
2023-04-19T05:23:18.800Z,7.38
2023-04-19T05:28:20.792Z,6.38
2023-04-19T05:33:35.103Z,5.72
2023-04-19T05:38:37.034Z,5.57
2023-04-19T05:43:40.050Z,4.60
2023-04-19T05:48:43.225Z,4.05
2023-04-19T05:54:03.561Z,4.53
2023-04-19T05:59:06.720Z,3.92
2023-04-19T06:04:08.599Z,3.70
2023-04-19T06:09:12.405Z,3.50
2023-04-19T06:14:15.910Z,3.33
2023-04-19T06:19:19.092Z,3.10
2023-04-19T06:24:20.973Z,3.38
2023-04-19T06:29:24.242Z,3.22
2023-04-19T06:34:26.006Z,2.80
2023-04-19T06:39:28.459Z,2.97
2023-04-19T06:44:30.283Z,3.00
2023-04-19T06:49:32.107Z,2.78
2023-04-19T06:54:33.917Z,2.72
2023-04-19T06:59:39.933Z,2.20
2023-04-19T07:04:42.128Z,2.25
2023-04-19T07:09:44.140Z,2.30
2023-04-19T07:14:45.947Z,2.65
2023-04-19T07:19:49.045Z,2.42
2023-04-19T07:24:52.225Z,2.15
2023-04-19T07:29:54.047Z,2.25
2023-04-19T07:34:56.055Z,2.65
2023-04-19T07:39:57.913Z,2.38
2023-04-19T07:45:00.270Z,2.30
2023-04-19T07:50:02.131Z,2.28
2023-04-19T07:55:04.279Z,2.33
2023-04-19T08:00:06.950Z,2.00
2023-04-19T08:05:17.695Z,2.50
2023-04-19T08:10:22.224Z,2.50
2023-04-19T08:16:04.919Z,2.20
2023-04-19T08:20:49.323Z,2.25
2023-04-19T08:25:51.353Z,2.63
2023-04-19T08:30:54.484Z,2.53
2023-04-19T08:35:56.278Z,2.67
2023-04-19T08:40:58.185Z,2.75
2023-04-19T08:46:00.371Z,2.58
2023-04-19T08:51:05.583Z,2.65
2023-04-19T08:56:18.095Z,3.50
2023-04-19T09:06:41.616Z,2.80
2023-04-19T09:11:43.790Z,2.65
2023-04-19T09:16:46.301Z,2.70
2023-04-19T09:21:51.874Z,3.30
2023-04-19T09:26:55.044Z,3.03
2023-04-19T09:31:59.560Z,3.20
2023-04-19T09:37:24.963Z,2.70
2023-04-19T09:48:11.543Z,3.15
2023-04-19T09:53:14.247Z,3.75
2023-04-19T09:58:17.057Z,3.42
2023-04-19T10:03:20.541Z,3.28
2023-04-19T10:08:22.376Z,3.28
2023-04-19T10:13:26.835Z,2.95
2023-04-19T10:18:29.803Z,2.90
2023-04-19T10:23:33.384Z,2.85
2023-04-19T10:28:36.828Z,3.15
2023-04-19T10:33:38.839Z,2.58
2023-04-19T10:38:48.983Z,2.88
2023-04-19T10:43:57.838Z,3.03
2023-04-19T10:49:01.211Z,2.90
2023-04-19T10:54:07.371Z,2.85
2023-04-19T10:59:13.292Z,3.75
2023-04-19T11:04:30.182Z,3.92
2023-04-19T11:09:38.305Z,2.80
2023-04-19T11:14:42.907Z,3.13
2023-04-19T11:20:03.393Z,2.58
2023-04-19T11:25:17.361Z,2.95
2023-04-19T11:30:22.580Z,2.60
2023-04-19T11:35:26.945Z,2.30
2023-04-19T11:40:28.888Z,2.85
2023-04-19T11:45:39.495Z,2.80
2023-04-19T11:50:43.690Z,3.05
2023-04-19T11:55:53.345Z,2.78
2023-04-19T12:00:56.586Z,2.40
2023-04-19T12:06:00.785Z,2.65
2023-04-19T12:11:03.757Z,2.30
2023-04-19T12:16:05.710Z,2.85
2023-04-19T12:21:08.053Z,2.28
2023-04-19T12:26:09.869Z,2.03
2023-04-19T12:31:11.728Z,2.95
2023-04-19T12:36:13.559Z,2.63
2023-04-19T12:41:15.376Z,2.90
2023-04-19T12:46:17.186Z,2.60
2023-04-19T12:51:19.020Z,2.95
2023-04-19T12:56:21.381Z,2.67
2023-04-19T13:01:23.676Z,2.72
2023-04-19T13:06:26.370Z,2.72
2023-04-19T13:11:28.311Z,3.13
2023-04-19T13:16:30.124Z,2.45
2023-04-19T13:21:32.018Z,3.10
2023-04-19T13:26:36.875Z,2.63
2023-04-19T13:31:38.907Z,3.08
2023-04-19T13:36:41.274Z,2.67
2023-04-19T13:41:43.340Z,3.47
2023-04-19T13:46:45.328Z,3.28
2023-04-19T13:51:50.732Z,3.20
2023-04-19T13:56:52.964Z,2.85
2023-04-19T14:01:56.133Z,3.10
2023-04-19T14:06:58.054Z,3.33
2023-04-19T14:12:00.379Z,7.63
2023-04-19T14:17:02.314Z,3.60
2023-04-19T14:22:04.107Z,3.33
2023-04-19T14:27:10.316Z,2.80
2023-04-19T14:32:24.992Z,2.80
2023-04-19T14:37:28.708Z,3.03
2023-04-19T14:42:30.994Z,3.70
2023-04-19T14:47:32.784Z,3.38
2023-04-19T14:52:34.924Z,3.10
2023-04-19T14:57:36.727Z,3.20
2023-04-19T15:02:38.714Z,3.55
2023-04-19T15:07:40.660Z,3.60
2023-04-19T15:12:42.535Z,2.85
2023-04-19T15:17:44.472Z,2.25
2023-04-19T15:22:46.277Z,2.78
2023-04-19T15:27:48.050Z,3.67
2023-04-19T15:32:49.913Z,4.30
2023-04-19T15:37:51.695Z,3.40
2023-04-19T15:42:53.463Z,4.28
2023-04-19T15:47:55.342Z,3.78
2023-04-19T15:52:57.556Z,4.35
2023-04-19T15:58:00.071Z,3.60
2023-04-19T16:03:02.043Z,3.90
2023-04-19T16:08:09.198Z,3.45
2023-04-19T16:13:13.449Z,4.95
2023-04-19T16:18:15.464Z,4.63
2023-04-19T16:23:17.346Z,4.95
2023-04-19T16:28:19.928Z,6.15
2023-04-19T16:33:21.883Z,4.90
2023-04-19T16:38:23.736Z,4.60
2023-04-19T16:43:25.522Z,5.00
2023-04-19T16:48:27.396Z,4.28
2023-04-19T16:53:31.375Z,4.13
2023-04-19T16:58:33.155Z,4.05
2023-04-19T17:03:35.454Z,4.70
2023-04-19T17:08:38.571Z,3.75
2023-04-19T17:13:40.461Z,3.90
2023-04-19T17:18:42.219Z,3.97
2023-04-19T17:23:45.625Z,4.10
2023-04-19T17:28:47.417Z,4.05
2023-04-19T17:33:49.318Z,4.70
2023-04-19T17:38:51.131Z,4.68
2023-04-19T17:43:52.993Z,6.40
2023-04-19T17:48:55.607Z,5.60
2023-04-19T17:53:57.397Z,4.57
2023-04-19T17:59:00.834Z,5.78
2023-04-19T18:04:03.420Z,5.15
2023-04-19T18:09:05.450Z,5.45
2023-04-19T18:14:07.509Z,5.63
2023-04-19T18:19:09.568Z,5.70
2023-04-19T18:24:11.444Z,6.32
2023-04-19T18:29:16.001Z,4.82
2023-04-19T18:34:18.203Z,4.85
2023-04-19T18:39:19.984Z,6.43
2023-04-19T18:44:44.191Z,4.78
2023-04-19T18:49:49.325Z,5.05
2023-04-19T18:54:59.801Z,6.60
2023-04-19T19:00:02.609Z,5.88
2023-04-19T19:05:07.442Z,5.20
2023-04-19T19:15:16.149Z,4.97
2023-04-19T19:20:20.055Z,5.43
2023-04-19T19:25:23.209Z,5.38
2023-04-19T19:30:26.104Z,4.80
2023-04-19T19:35:28.767Z,5.60
2023-04-19T19:40:32.728Z,3.45
2023-04-19T19:45:36.898Z,3.40
2023-04-19T19:51:07.282Z,4.25
2023-04-19T19:56:01.816Z,3.42
2023-04-19T20:01:04.365Z,3.30
2023-04-19T20:11:12.220Z,3.30
2023-04-19T20:16:15.006Z,4.50
2023-04-19T20:21:19.779Z,3.75
2023-04-19T20:26:22.057Z,3.67
2023-04-19T20:31:24.133Z,3.97
2023-04-19T20:36:27.652Z,4.28
2023-04-19T20:41:29.520Z,3.78
2023-04-19T20:46:32.133Z,3.72
2023-04-19T20:51:34.033Z,3.42
2023-04-19T20:56:35.804Z,3.55
2023-04-19T21:01:37.714Z,3.08
2023-04-19T21:06:39.564Z,3.50
2023-04-19T21:11:41.323Z,3.60
2023-04-19T21:16:43.092Z,3.72
2023-04-19T21:21:45.113Z,3.40
2023-04-19T21:26:46.922Z,3.35
2023-04-19T21:31:48.756Z,3.85
2023-04-19T21:36:50.633Z,3.55
2023-04-19T21:41:52.479Z,3.38
2023-04-19T21:46:54.281Z,3.63
2023-04-19T21:51:56.985Z,3.45
2023-04-19T21:56:59.804Z,3.63
2023-04-19T22:02:01.672Z,3.42
2023-04-19T22:07:03.562Z,3.42
2023-04-19T22:12:06.163Z,3.65
2023-04-19T22:17:09.107Z,3.58
2023-04-19T22:22:10.936Z,4.28
2023-04-19T22:27:12.714Z,3.92
2023-04-19T22:32:14.555Z,4.13
2023-04-19T22:37:16.527Z,3.80
2023-04-19T22:42:18.354Z,3.95
2023-04-19T22:47:20.151Z,4.05
2023-04-19T22:52:21.968Z,4.18
2023-04-19T22:57:23.796Z,4.20
2023-04-19T23:02:25.727Z,4.32
2023-04-19T23:07:28.984Z,4.35
2023-04-19T23:12:31.222Z,3.55
2023-04-19T23:17:33.136Z,4.20
2023-04-19T23:22:34.970Z,4.03
2023-04-19T23:27:36.818Z,4.53
2023-04-19T23:32:38.709Z,4.45
2023-04-19T23:37:41.089Z,4.28
2023-04-19T23:42:42.875Z,4.53
2023-04-19T23:47:44.986Z,4.57
2023-04-19T23:52:46.775Z,4.30
2023-04-19T23:57:49.317Z,3.58
